Bookmark and Share
Track history (hours):
 

Drifting buoy 16555

Last reported at 2013-May-08 10:40 UTC. Time now 2014-Apr-21 03:04 UTC.
Position S 25°04' E 033°49'.
Warning: this ship's position is months out of date.

Water temperature 23.4 ° C

NotesDate/timePositionNaut miles runAvg speedWind from/ knotsBaromVisibWave heightAir tempDewpointWater temp
2013-May-08 10:40S 25°04' E 033°49'0 0.0 23.4
2013-May-08 09:40S 25°04' E 033°49'0 0.1 27.8
2013-May-08 07:40S 25°04' E 033°49'0 0.0 19.7
2013-May-08 03:40S 25°04' E 033°49'0 0.0 14.9
2013-May-08 02:40S 25°04' E 033°49'0 0.0 15.2
2013-May-07 19:40S 25°04' E 033°49'4 2.0 19.4
2013-May-07 17:40S 25°06' E 033°46'0 0.1 16.0
2013-May-07 16:40S 25°07' E 033°45'0 0.0 18.8
2013-May-07 13:40S 25°06' E 033°46'0 0.0 23.6
2013-May-07 11:40S 25°06' E 033°46'0 0.2 23.9
2013-May-07 10:40S 25°06' E 033°46'0 0.0 22.6
2013-May-07 06:40S 25°06' E 033°46'0 0.0 20.9
2013-May-07 04:40S 25°06' E 033°46'0 0.0 20.5
2013-May-07 03:40S 25°06' E 033°46'0 0.1 21.3
2013-May-07 00:40S 25°07' E 033°46'0 0.1 22.5
2013-May-06 23:40S 25°06' E 033°46'0 0.0 22.7
2013-May-06 19:40S 25°07' E 033°46'0 0.2 20.5
2013-May-06 18:40S 25°07' E 033°46'3 0.8 23.3
2013-May-06 14:40S 25°10' E 033°44'0 0.0 24.4
2013-May-06 13:40S 25°10' E 033°44'2 1.6 24.4
2013-May-06 12:40S 25°11' E 033°43'2 1.0 24.5
2013-May-06 10:40S 25°13' E 033°42'4 1.1 24.8
2013-May-06 06:40S 25°17' E 033°41'1 1.1 25.0
2013-May-06 05:40S 25°18' E 033°41'2 1.5 25.0
2013-May-06 04:40S 25°20' E 033°41'2 1.9 25.0
2013-May-06 03:40S 25°21' E 033°41'2 0.8 25.0
2013-May-06 01:40S 25°23' E 033°41'2 1.2 25.1
2013-May-05 23:40S 25°25' E 033°42'2 2.1 25.1
2013-May-05 22:40S 25°27' E 033°41'0 0.0 25.1
2013-May-05 21:40S 25°27' E 033°41'4 3.7 25.1
2013-May-05 20:40S 25°31' E 033°41'1 0.6 25.1
2013-May-05 18:40S 25°32' E 033°41'2 0.8 25.3
2013-May-05 15:40S 25°35' E 033°41'2 1.1 25.2
2013-May-05 13:40S 25°37' E 033°41'2 0.7 25.3
2013-May-05 10:40S 25°39' E 033°40'5 0.9 25.3
2013-May-05 05:40S 25°43' E 033°39'1 0.7 25.3
2013-May-05 04:40S 25°44' E 033°39'4 2.0 25.6
2013-May-05 02:40S 25°48' E 033°40'0 0.0 25.8
2013-May-05 01:40S 25°48' E 033°40'2 1.5 25.9
2013-May-05 00:40S 25°49' E 033°40'2 1.1 26.0
2013-May-04 22:40S 25°51' E 033°40'3 2.6 25.6
2013-May-04 21:40S 25°54' E 033°41'2 1.6 25.6
2013-May-04 20:40S 25°56' E 033°41'0 0.4 25.6
2013-May-04 19:40S 25°56' E 033°41'2 2.1 25.6
2013-May-04 18:40S 25°58' E 033°41'2 2.3 25.6
2013-May-04 17:40S 26°00' E 033°41'3 0.9 25.6
2013-May-04 14:40S 26°03' E 033°42'1 1.5 25.7
2013-May-04 13:40S 26°04' E 033°41'2 0.5 25.7
2013-May-04 10:40S 26°05' E 033°40'2 0.7 25.7
2013-May-04 07:40S 26°03' E 033°39'1 1.3 25.7
2013-May-04 06:40S 26°01' E 033°39'1 0.3 25.7
2013-May-04 04:40S 26°01' E 033°39'1 0.5 25.7
2013-May-04 01:40S 25°60' E 033°39'1 1.2 25.9
2013-May-04 00:40S 25°59' E 033°40'2 1.9 26.0
2013-May-03 23:40S 25°58' E 033°42'1 0.6 26.0
2013-May-03 22:40S 25°58' E 033°41'4 0.6 26.0
2013-May-03 15:40S 25°56' E 033°45'0 0.2 26.1
2013-May-03 14:40S 25°56' E 033°45'2 0.8 26.1
2013-May-03 11:40S 25°55' E 033°48'0 0.4 26.3
2013-May-03 10:40S 25°55' E 033°47'0 0.1 26.3
2013-May-03 09:40S 25°55' E 033°47'1 0.6 26.3
2013-May-03 07:40S 25°54' E 033°48'1 0.3 26.2
2013-May-03 04:40S 25°53' E 033°48'1 0.7 26.2
2013-May-03 03:40S 25°53' E 033°49'0 0.2 26.2
2013-May-03 01:40S 25°53' E 033°49'1 0.9 26.2
2013-May-03 00:40S 25°53' E 033°50'1 1.1 26.2
2013-May-02 23:40S 25°52' E 033°51'0 0.0 26.2
2013-May-02 22:40S 25°52' E 033°51'1 0.9 26.2
2013-May-02 21:40S 25°52' E 033°52'1 1.0 26.2
2013-May-02 20:40S 25°52' E 033°53'2 0.4 26.2
2013-May-02 15:40S 25°52' E 033°56'1 0.7 26.4
2013-May-02 14:40S 25°51' E 033°57'1 0.8 26.5
2013-May-02 13:40S 25°52' E 033°58'1 0.9 26.6
2013-May-02 12:40S 25°51' E 033°58'0 0.4 26.6
2013-May-02 11:40S 25°51' E 033°58'2 0.6 26.6
2013-May-02 07:40S 25°51' E 034°01'1 0.7 26.3
2013-May-02 06:40S 25°50' E 034°02'0 0.4 26.2
2013-May-02 05:40S 25°50' E 034°02'1 0.9 26.2
2013-May-02 04:40S 25°50' E 034°03'1 0.5 26.2
2013-May-02 02:40S 25°50' E 034°04'1 0.7 26.2
2013-May-02 00:40S 25°50' E 034°06'1 0.4 26.2
2013-May-01 22:40S 25°50' E 034°06'1 1.2 26.2
2013-May-01 21:40S 25°49' E 034°07'1 0.9 26.2
2013-May-01 20:40S 25°49' E 034°08'2 1.6 26.3
2013-May-01 19:40S 25°49' E 034°10'1 0.8 26.3
2013-May-01 18:40S 25°49' E 034°11'1 1.3 26.4
2013-May-01 17:40S 25°48' E 034°12'0 0.0 26.4
2013-May-01 16:40S 25°48' E 034°12'5 1.1 26.4
2013-May-01 12:40S 25°48' E 034°17'0 0.3 26.8
2013-May-01 11:40S 25°48' E 034°17'1 0.7 26.8
2013-May-01 09:40S 25°48' E 034°19'4 1.1 26.4
2013-May-01 05:40S 25°48' E 034°24'2 1.6 26.0
2013-May-01 04:40S 25°48' E 034°25'4 0.9 26.0
2013-Apr-30 23:40S 25°49' E 034°30'2 0.8 25.8
2013-Apr-30 21:40S 25°49' E 034°32'3 0.8 25.6
2013-Apr-30 18:40S 25°49' E 034°35'1 1.5 25.6
2013-Apr-30 17:40S 25°49' E 034°36'1 0.7 25.6
2013-Apr-30 15:40S 25°49' E 034°38'2 1.1 25.6
2013-Apr-30 13:40S 25°49' E 034°40'1 1.1 25.6
2013-Apr-30 12:40S 25°50' E 034°41'1 0.5 25.6
2013-Apr-30 09:40S 25°50' E 034°43'5 1.6 25.4
2013-Apr-30 06:40S 25°51' E 034°48'0 0.2 25.0
2013-Apr-30 05:40S 25°52' E 034°48'3 2.9 24.9
2013-Apr-30 04:40S 25°53' E 034°51'1 1.2 25.1
2013-Apr-30 03:40S 25°54' E 034°52'4 1.0 25.1
2013-Apr-29 23:40S 25°57' E 034°55'2 0.6 25.2
2013-Apr-29 19:40S 25°57' E 034°58'0 0.3 25.3
2013-Apr-29 18:40S 25°57' E 034°58'3 0.7 25.2
2013-Apr-29 14:40S 25°58' E 035°01'0 0.5 25.4
2013-Apr-29 13:40S 25°58' E 035°01'1 0.3 25.5
2013-Apr-29 11:40S 25°59' E 035°01'0 0.4 25.6
2013-Apr-29 10:40S 25°59' E 035°01'0 0.0 25.6
2013-Apr-29 09:40S 25°59' E 035°01'3 1.1 25.6
2013-Apr-29 06:40S 25°58' E 035°04'2 2.0 25.1
2013-Apr-29 05:40S 25°58' E 035°06'2 0.3 25.0
2013-Apr-28 23:40S 25°58' E 035°08'1 1.1 25.0
2013-Apr-28 22:40S 25°57' E 035°09'0 0.1 25.1
2013-Apr-28 21:40S 25°57' E 035°09'4 0.9 25.2
2013-Apr-28 17:40S 25°56' E 035°13'4 0.8 25.3
2013-Apr-28 12:40S 25°55' E 035°17'0 0.2 25.7
2013-Apr-28 11:40S 25°55' E 035°17'1 1.0 25.6
2013-Apr-28 10:40S 25°55' E 035°18'   25.4

Dump ship's entire track history

sailing weather and tide predictions

Buoy 16555